Time;durP1;ratioP1;P1;durP2;ratioP2;P2;SDS_P1;SDS_P2;PMS_P1;PMS_P2;Temp;Humidity;BMP_temperature;BMP_pressure;BME280_temperature;BME280_humidity;BME280_pressure;Samples;Min_cycle;Max_cycle;Signal;HPM_P1;HPM_P2
2021/06/16 00:00:03;;;;;;;7.08;6.05;;;;;;;19.46;68.48;99144.52;130011;1093;113695;-69
2021/06/16 00:02:40;;;;;;;6.03;5.50;;;;;;;19.39;68.85;99154.09;130063;1092;22546;-69
2021/06/16 00:05:12;;;;;;;6.23;5.45;;;;;;;19.34;69.03;99156.20;129984;1092;113688;-68
2021/06/16 00:07:40;;;;;;;6.90;5.80;;;;;;;19.30;69.31;99158.00;130106;1093;22702;-69
2021/06/16 00:10:10;;;;;;;6.10;5.50;;;;;;;19.29;69.49;99161.91;130101;1093;22637;-69
2021/06/16 00:12:39;;;;;;;6.30;5.70;;;;;;;19.26;69.73;99165.30;129935;1093;113590;-69
2021/06/16 00:15:13;;;;;;;8.73;5.90;;;;;;;19.23;70.27;99172.28;130127;1091;22673;-68
2021/06/16 00:17:41;;;;;;;7.07;6.33;;;;;;;19.23;70.22;99165.95;129959;1093;113850;-68
2021/06/16 00:20:10;;;;;;;6.90;5.68;;;;;;;19.20;70.50;99170.16;130056;1093;22719;-68
2021/06/16 00:22:40;;;;;;;7.10;6.40;;;;;;;19.18;70.97;99166.94;130077;1091;22779;-68
2021/06/16 00:25:09;;;;;;;7.30;6.63;;;;;;;19.14;71.35;99168.71;130035;1093;113791;-68
2021/06/16 00:27:37;;;;;;;7.28;6.68;;;;;;;19.11;71.47;99172.11;130081;1093;22606;-68
2021/06/16 00:30:07;;;;;;;6.78;5.80;;;;;;;19.08;71.80;99168.05;129990;1093;114031;-68
2021/06/16 00:32:37;;;;;;;8.05;6.65;;;;;;;19.07;71.90;99163.66;130123;1093;22531;-68
2021/06/16 00:35:12;;;;;;;6.97;6.27;;;;;;;19.05;72.03;99163.16;129961;1092;113728;-68
2021/06/16 00:37:41;;;;;;;8.10;6.98;;;;;;;19.05;72.30;99156.82;130092;1093;23456;-68
2021/06/16 00:40:11;;;;;;;12.30;6.70;;;;;;;19.04;72.15;99160.75;130101;1091;23460;-68
2021/06/16 00:42:40;;;;;;;7.78;6.65;;;;;;;19.02;72.27;99149.20;129998;1092;114165;-68
2021/06/16 00:45:09;;;;;;;11.18;6.65;;;;;;;18.99;72.68;99158.94;130047;1091;22667;-68
2021/06/16 00:47:38;;;;;;;11.03;6.63;;;;;;;19.01;72.54;99162.20;130025;1093;113954;-68
2021/06/16 00:50:07;;;;;;;7.73;6.73;;;;;;;19.01;72.76;99166.91;130073;1093;22557;-69
2021/06/16 00:52:36;;;;;;;10.65;7.20;;;;;;;19.01;73.10;99176.00;130102;1092;22598;-69
2021/06/16 00:55:05;;;;;;;7.40;6.63;;;;;;;19.01;73.01;99175.19;129997;1093;113771;-69
2021/06/16 00:57:34;;;;;;;9.00;6.25;;;;;;;19.00;73.18;99168.86;130088;1093;23316;-69
2021/06/16 01:00:12;;;;;;;7.38;6.68;;;;;;;19.00;73.21;99182.66;129981;1092;113858;-69
2021/06/16 01:02:53;;;;;;;8.68;7.08;;;;;;;19.00;73.16;99168.86;130115;1092;22590;-69
2021/06/16 01:05:22;;;;;;;7.08;5.90;;;;;;;19.00;73.16;99176.32;129609;1093;113750;-69
2021/06/16 01:07:59;;;;;;;8.33;6.68;;;;;;;18.99;73.19;99174.70;130064;1093;23397;-69
2021/06/16 01:10:34;;;;;;;9.75;6.83;;;;;;;18.97;73.56;99166.73;130057;1092;22653;-69
2021/06/16 01:13:09;;;;;;;8.70;6.95;;;;;;;18.97;73.52;99163.97;130014;1093;113862;-68
2021/06/16 01:15:57;;;;;;;7.10;6.40;;;;;;;18.96;74.04;99162.34;130043;1093;22632;-69
2021/06/16 01:18:26;;;;;;;13.50;6.50;;;;;;;18.97;74.29;99165.92;129964;1093;113797;-69
2021/06/16 01:20:55;;;;;;;8.30;6.78;;;;;;;18.97;74.47;99163.97;130069;1092;23181;-69
2021/06/16 01:23:49;;;;;;;7.45;6.70;;;;;;;18.98;74.66;99162.84;129995;1093;114254;-69
2021/06/16 01:26:18;;;;;;;7.88;7.15;;;;;;;19.01;74.73;99166.91;130018;1093;22597;-69
2021/06/16 01:28:46;;;;;;;8.03;7.10;;;;;;;19.04;74.74;99172.58;130116;1092;22549;-68
2021/06/16 01:31:16;;;;;;;7.93;6.63;;;;;;;19.07;74.37;99162.84;129956;1093;115088;-69
2021/06/16 01:33:44;;;;;;;11.70;7.30;;;;;;;19.12;74.61;99167.41;130087;1092;22527;-69
2021/06/16 01:36:25;;;;;;;9.78;6.90;;;;;;;19.16;74.40;99174.73;129958;1093;114242;-68
2021/06/16 01:38:54;;;;;;;11.85;6.95;;;;;;;19.20;73.98;99169.34;130072;1093;22580;-68
2021/06/16 01:41:23;;;;;;;7.83;6.45;;;;;;;19.23;74.00;99175.05;129997;1091;114504;-68
2021/06/16 01:43:54;;;;;;;7.13;6.43;;;;;;;19.27;73.71;99184.32;130099;1093;22602;-70
2021/06/16 01:46:23;;;;;;;7.53;6.73;;;;;;;19.32;73.29;99195.23;129845;1092;23349;-68
2021/06/16 01:48:52;;;;;;;7.48;6.18;;;;;;;19.36;73.53;99203.66;129783;1093;113786;-68
2021/06/16 01:51:20;;;;;;;8.50;6.40;;;;;;;19.38;73.05;99209.67;129882;1093;22590;-68
2021/06/16 01:53:49;;;;;;;8.65;6.68;;;;;;;19.39;72.79;99212.12;129968;1092;113837;-68
2021/06/16 01:56:18;;;;;;;8.43;6.08;;;;;;;19.40;72.65;99216.51;129828;1093;22667;-68
2021/06/16 01:58:47;;;;;;;8.10;6.25;;;;;;;19.42;72.31;99214.23;130087;1092;22598;-68
2021/06/16 02:01:17;;;;;;;8.00;6.45;;;;;;;19.44;72.24;99208.39;129697;1093;113397;-69
2021/06/16 02:03:46;;;;;;;6.43;5.83;;;;;;;19.47;72.21;99204.98;130144;1091;22695;-68
2021/06/16 02:06:17;;;;;;;6.93;6.28;;;;;;;19.50;71.86;99212.63;127833;1093;114035;-68
2021/06/16 02:08:49;;;;;;;6.95;6.15;;;;;;;19.53;71.74;99209.23;130123;1093;22553;-69
2021/06/16 02:11:19;;;;;;;9.45;6.40;;;;;;;19.56;71.04;99224.36;129753;1093;114954;-68
2021/06/16 02:13:55;;;;;;;10.90;6.70;;;;;;;19.57;70.75;99215.74;130043;1092;22655;-69
2021/06/16 02:16:32;;;;;;;6.95;6.25;;;;;;;19.58;70.48;99209.08;130081;1093;23167;-68
2021/06/16 02:19:05;;;;;;;6.40;5.45;;;;;;;19.59;70.56;99207.94;129974;1093;113809;-68
2021/06/16 02:21:33;;;;;;;6.75;6.05;;;;;;;19.60;70.56;99211.52;130098;1092;23654;-68
2021/06/16 02:24:02;;;;;;;7.50;5.65;;;;;;;19.60;70.04;99217.05;129638;1092;113839;-69
2021/06/16 02:26:30;;;;;;;8.73;5.93;;;;;;;19.61;69.92;99219.49;129803;1092;22551;-69
2021/06/16 02:28:59;;;;;;;6.83;6.13;;;;;;;19.62;70.22;99221.09;129654;1092;114299;-69
2021/06/16 02:31:27;;;;;;;7.40;6.10;;;;;;;19.62;69.88;99223.06;129772;1092;22563;-69
2021/06/16 02:33:55;;;;;;;7.30;6.60;;;;;;;19.61;69.76;99232.50;129757;1092;22555;-68
2021/06/16 02:36:24;;;;;;;10.25;6.18;;;;;;;19.61;69.67;99232.50;129718;1093;114097;-68
2021/06/16 02:38:54;;;;;;;9.88;6.10;;;;;;;19.58;69.72;99236.72;129705;1092;22662;-68
2021/06/16 02:41:23;;;;;;;7.63;5.80;;;;;;;19.56;70.21;99236.22;129666;1092;113933;-69
2021/06/16 02:43:53;;;;;;;7.68;6.98;;;;;;;19.54;70.22;99234.91;129724;1093;22533;-69
2021/06/16 02:46:21;;;;;;;8.98;6.68;;;;;;;19.51;70.34;99235.56;129809;1093;22558;-68
2021/06/16 02:48:51;;;;;;;7.30;6.18;;;;;;;19.46;70.38;99230.17;129652;1093;113953;-68
2021/06/16 02:51:20;;;;;;;7.48;6.08;;;;;;;19.39;70.91;99230.64;129798;1092;22579;-68
2021/06/16 02:53:48;;;;;;;6.90;6.20;;;;;;;19.34;70.88;99234.36;129651;1093;113832;-69
2021/06/16 02:56:16;;;;;;;6.40;5.80;;;;;;;19.30;71.09;99240.88;129771;1093;23332;-69
2021/06/16 02:58:46;;;;;;;6.80;6.10;;;;;;;19.24;71.05;99242.97;129737;1093;23202;-68
2021/06/16 03:01:16;;;;;;;7.33;6.63;;;;;;;19.21;71.23;99237.27;129705;1092;113747;-69
2021/06/16 03:03:47;;;;;;;8.43;6.23;;;;;;;19.19;71.19;99239.56;130064;1093;22487;-69
2021/06/16 03:06:22;;;;;;;9.38;6.40;;;;;;;19.17;70.79;99234.36;129758;1093;113785;-69
2021/06/16 03:08:54;;;;;;;8.78;7.48;;;;;;;19.18;71.06;99222.17;130073;1093;22759;-69
2021/06/16 03:11:23;;;;;;;9.68;8.03;;;;;;;19.20;71.18;99225.41;129983;1093;114401;-69
2021/06/16 03:13:52;;;;;;;10.03;6.65;;;;;;;19.20;71.15;99217.12;129920;1092;22525;-69
2021/06/16 03:16:20;;;;;;;11.68;6.95;;;;;;;19.19;71.46;99229.30;130079;1093;22557;-69
2021/06/16 03:18:49;;;;;;;10.10;6.85;;;;;;;19.19;71.60;99228.52;129904;1093;113964;-69
2021/06/16 03:21:17;;;;;;;11.75;7.70;;;;;;;19.17;71.13;99220.55;130071;1092;22581;-69
2021/06/16 03:23:47;;;;;;;9.48;7.63;;;;;;;19.16;71.08;99221.68;129994;1093;113997;-69
2021/06/16 03:26:18;;;;;;;9.83;7.03;;;;;;;19.15;70.88;99225.58;130049;1093;22672;-69
2021/06/16 03:28:47;;;;;;;8.40;7.43;;;;;;;19.16;70.56;99232.73;130124;1092;22695;-69
2021/06/16 03:31:15;;;;;;;9.30;6.70;;;;;;;19.17;70.85;99231.59;129945;1093;113721;-69
2021/06/16 03:33:44;;;;;;;9.95;6.75;;;;;;;19.20;70.65;99230.11;130130;1092;22616;-69
2021/06/16 03:36:12;;;;;;;9.30;6.90;;;;;;;19.21;70.41;99232.56;129787;1093;113971;-69
2021/06/16 03:38:41;;;;;;;7.10;6.40;;;;;;;19.24;70.25;99233.87;130080;1092;23425;-69
2021/06/16 03:41:11;;;;;;;9.73;6.07;;;;;;;19.26;70.15;99232.41;129727;1092;114964;-69
2021/06/16 03:43:39;;;;;;;7.85;6.18;;;;;;;19.29;69.96;99240.06;129886;1093;22556;-69
2021/06/16 03:46:08;;;;;;;7.83;5.70;;;;;;;19.32;69.81;99241.38;129836;1093;22563;-68
2021/06/16 03:48:37;;;;;;;8.75;6.18;;;;;;;19.34;69.60;99241.84;129999;1092;114328;-69
2021/06/16 03:51:06;;;;;;;8.85;6.20;;;;;;;19.36;69.48;99239.57;130030;1093;22720;-69
2021/06/16 03:53:34;;;;;;;6.58;5.88;;;;;;;19.40;69.54;99246.09;129739;1093;114129;-69
2021/06/16 03:56:03;;;;;;;9.88;6.58;;;;;;;19.43;69.32;99257.31;130039;1093;23116;-69
2021/06/16 03:58:31;;;;;;;8.00;6.35;;;;;;;19.47;69.22;99256.67;129835;1093;22539;-69
2021/06/16 04:01:00;;;;;;;6.80;6.10;;;;;;;19.50;69.37;99256.03;129721;1093;115397;-69
2021/06/16 04:03:28;;;;;;;7.18;6.20;;;;;;;19.54;68.98;99257.02;130097;1093;23760;-69
2021/06/16 04:05:57;;;;;;;7.95;6.40;;;;;;;19.56;68.83;99261.09;128186;1093;114061;-68
2021/06/16 04:08:25;;;;;;;12.83;6.68;;;;;;;19.57;68.89;99256.38;130064;1092;23278;-69
2021/06/16 04:10:54;;;;;;;7.23;6.53;;;;;;;19.60;68.18;99264.84;130110;1093;22673;-69
2021/06/16 04:13:22;;;;;;;7.80;6.90;;;;;;;19.60;67.97;99264.84;129723;1093;113739;-69
2021/06/16 04:15:50;;;;;;;7.50;5.88;;;;;;;19.60;67.82;99273.14;130123;1093;22526;-68
2021/06/16 04:18:19;;;;;;;7.65;5.73;;;;;;;19.60;67.88;99267.61;129962;1093;113911;-69
2021/06/16 04:20:47;;;;;;;8.98;6.10;;;;;;;19.65;67.71;99275.72;130089;1093;22559;-68
2021/06/16 04:23:16;;;;;;;7.58;6.78;;;;;;;19.68;67.96;99271.50;129970;1092;114025;-68
2021/06/16 04:25:44;;;;;;;8.55;6.05;;;;;;;19.71;67.78;99266.15;130115;1093;22538;-69
2021/06/16 04:28:12;;;;;;;9.48;6.90;;;;;;;19.74;67.26;99271.03;130053;1092;22556;-69
2021/06/16 04:30:41;;;;;;;9.03;6.33;;;;;;;19.76;67.32;99270.72;130018;1092;113839;-69
2021/06/16 04:33:10;;;;;;;8.98;6.35;;;;;;;19.77;67.14;99275.08;130078;1093;23460;-69
2021/06/16 04:35:38;;;;;;;10.25;6.88;;;;;;;19.77;67.22;99278.66;129996;1093;114151;-68
2021/06/16 04:38:07;;;;;;;10.58;6.13;;;;;;;19.78;67.27;99279.47;130106;1093;22551;-68
2021/06/16 04:40:35;;;;;;;7.58;6.00;;;;;;;19.78;67.33;99285.00;130063;1093;22635;-68
2021/06/16 04:43:04;;;;;;;11.45;6.78;;;;;;;19.78;67.56;99283.05;129932;1093;114208;-68
2021/06/16 04:45:32;;;;;;;11.95;6.23;;;;;;;19.81;67.10;99283.55;130100;1092;23187;-68
2021/06/16 04:48:00;;;;;;;8.15;5.88;;;;;;;19.83;67.08;99282.09;129957;1093;113970;-67
2021/06/16 04:50:29;;;;;;;9.18;6.38;;;;;;;19.83;67.15;99284.84;130075;1093;22556;-68
2021/06/16 04:52:57;;;;;;;7.18;6.18;;;;;;;19.83;67.04;99279.32;130068;1091;22608;-67
2021/06/16 04:55:25;;;;;;;6.55;5.83;;;;;;;19.83;66.68;99282.09;129982;1093;113655;-67
2021/06/16 04:57:54;;;;;;;10.78;6.35;;;;;;;19.83;66.80;99278.51;130091;1092;23808;-68
2021/06/16 05:00:22;;;;;;;8.75;5.63;;;;;;;19.83;67.32;99276.55;129988;1091;116479;-68
2021/06/16 05:02:56;;;;;;;7.03;6.28;;;;;;;19.88;67.24;99275.59;130103;1093;22626;-68
2021/06/16 05:05:26;;;;;;;6.78;5.98;;;;;;;19.96;67.14;99275.58;129984;1093;114545;-68
2021/06/16 05:07:54;;;;;;;11.70;6.20;;;;;;;20.03;66.91;99280.63;130115;1093;22641;-68
2021/06/16 05:10:22;;;;;;;6.75;6.13;;;;;;;20.13;66.91;99283.87;130052;1091;22655;-68
2021/06/16 05:12:51;;;;;;;7.48;6.03;;;;;;;20.26;66.64;99289.55;129921;1093;114249;-69
2021/06/16 05:15:19;;;;;;;8.23;6.28;;;;;;;20.38;66.22;99290.53;130067;1093;22568;-68
2021/06/16 05:17:48;;;;;;;8.88;5.95;;;;;;;20.55;66.04;99288.88;129965;1093;113979;-68
2021/06/16 05:20:16;;;;;;;10.58;5.90;;;;;;;20.68;65.60;99291.44;130036;1093;23169;-68
2021/06/16 05:22:47;;;;;;;8.23;5.58;;;;;;;20.85;65.38;99295.30;130079;1093;22530;-67
2021/06/16 05:25:16;;;;;;;7.00;6.28;;;;;;;21.01;64.77;99291.65;129959;1092;114116;-67
2021/06/16 05:27:45;;;;;;;5.88;5.25;;;;;;;21.16;64.21;99293.86;130095;1093;22711;-68
2021/06/16 05:30:14;;;;;;;8.83;6.33;;;;;;;21.31;63.74;99289.73;129968;1092;114451;-67
2021/06/16 05:32:42;;;;;;;8.65;5.75;;;;;;;21.46;63.50;99297.48;129852;1093;22556;-68
2021/06/16 05:35:11;;;;;;;6.35;5.75;;;;;;;21.63;63.01;99299.33;129954;1092;114011;-68
2021/06/16 05:37:45;;;;;;;7.63;6.45;;;;;;;21.74;62.34;99305.28;130069;1092;22667;-68
2021/06/16 05:40:14;;;;;;;9.73;6.15;;;;;;;21.80;62.12;99298.38;129985;1092;22605;-67
2021/06/16 05:42:42;;;;;;;10.50;6.18;;;;;;;21.84;62.27;99305.69;129948;1092;114547;-68
2021/06/16 05:45:12;;;;;;;6.78;5.95;;;;;;;21.88;61.74;99305.83;130019;1093;22588;-68
2021/06/16 05:47:40;;;;;;;6.65;5.70;;;;;;;21.93;61.54;99315.92;129971;1093;114311;-68
2021/06/16 05:50:09;;;;;;;9.40;6.03;;;;;;;21.92;61.55;99305.97;130016;1093;22576;-68
2021/06/16 05:52:38;;;;;;;11.28;5.85;;;;;;;21.94;61.90;99310.01;130032;1093;22537;-68
2021/06/16 05:55:08;;;;;;;9.40;6.47;;;;;;;21.95;61.62;99308.05;129957;1091;113770;-68
2021/06/16 05:57:37;;;;;;;9.05;6.40;;;;;;;21.94;61.69;99307.23;130049;1093;22584;-68
2021/06/16 06:00:06;;;;;;;11.83;5.80;;;;;;;21.94;61.55;99309.20;129941;1093;114561;-68
2021/06/16 06:02:43;;;;;;;8.50;6.03;;;;;;;21.91;61.32;99316.26;130045;1093;22690;-67
2021/06/16 06:05:12;;;;;;;7.83;5.88;;;;;;;21.90;61.01;99320.18;129910;1093;114567;-67
2021/06/16 06:07:41;;;;;;;8.65;6.10;;;;;;;21.90;61.48;99311.86;130010;1093;23084;-69
2021/06/16 06:10:10;;;;;;;8.63;5.90;;;;;;;21.91;61.70;99324.58;130065;1093;22681;-68
2021/06/16 06:12:40;;;;;;;8.03;5.60;;;;;;;21.94;61.44;99318.33;129915;1093;113815;-68
2021/06/16 06:15:09;;;;;;;8.18;5.90;;;;;;;21.97;61.52;99308.52;130043;1092;22510;-68
2021/06/16 06:17:37;;;;;;;10.58;5.95;;;;;;;22.00;60.77;99316.21;129875;1092;114148;-68
2021/06/16 06:20:06;;;;;;;6.93;5.08;;;;;;;22.01;60.79;99317.84;130053;1093;23099;-68
2021/06/16 06:22:36;;;;;;;8.50;5.63;;;;;;;22.10;60.58;99322.16;130036;1093;22543;-68
2021/06/16 06:25:04;;;;;;;7.53;5.85;;;;;;;22.15;60.08;99319.18;129983;1093;113927;-69
2021/06/16 06:27:33;;;;;;;5.70;5.20;;;;;;;22.18;59.91;99321.28;130032;1092;22615;-68
2021/06/16 06:30:02;;;;;;;5.95;5.33;;;;;;;22.24;60.17;99324.64;129965;1092;114095;-68
2021/06/16 06:32:30;;;;;;;8.35;4.65;;;;;;;22.35;59.80;99325.88;130011;1093;23644;-68
2021/06/16 06:34:59;;;;;;;9.90;4.90;;;;;;;22.51;58.51;99326.02;130112;1093;22677;-68
2021/06/16 06:37:29;;;;;;;6.10;4.45;;;;;;;22.62;57.64;99323.65;129947;1093;113404;-68
2021/06/16 06:39:57;;;;;;;8.33;4.20;;;;;;;22.68;57.21;99322.26;130092;1093;22497;-68
2021/06/16 06:42:26;;;;;;;6.58;4.83;;;;;;;22.72;56.47;99321.23;129909;1092;114311;-68
2021/06/16 06:44:54;;;;;;;5.40;4.15;;;;;;;22.68;56.84;99325.84;130057;1093;22586;-68
2021/06/16 06:47:25;;;;;;;10.03;4.80;;;;;;;22.63;57.33;99325.27;129884;1093;113902;-67
2021/06/16 06:49:54;;;;;;;10.28;4.50;;;;;;;22.55;58.13;99330.56;130067;1093;22507;-67
2021/06/16 06:52:22;;;;;;;6.80;4.63;;;;;;;22.51;57.98;99329.61;129963;1092;23619;-67
2021/06/16 06:54:51;;;;;;;9.65;4.25;;;;;;;22.46;58.17;99332.62;129940;1093;113745;-68
2021/06/16 06:57:20;;;;;;;8.25;5.15;;;;;;;22.45;58.44;99330.18;130021;1093;22573;-68
2021/06/16 06:59:48;;;;;;;7.88;5.03;;;;;;;22.42;58.13;99339.19;129895;1093;114731;-67
2021/06/16 07:02:17;;;;;;;6.70;4.83;;;;;;;22.35;57.88;99331.42;130102;1091;22590;-67
2021/06/16 07:04:45;;;;;;;6.30;4.63;;;;;;;22.27;58.31;99332.30;130049;1093;22560;-67
2021/06/16 07:07:13;;;;;;;6.13;4.90;;;;;;;22.26;58.28;99338.19;129983;1093;113619;-69
2021/06/16 07:09:44;;;;;;;4.85;4.45;;;;;;;22.23;58.16;99334.13;130055;1091;23326;-68
2021/06/16 07:12:13;;;;;;;7.53;4.88;;;;;;;22.24;57.90;99338.52;130040;1092;113908;-68
2021/06/16 07:14:41;;;;;;;5.10;4.38;;;;;;;22.22;56.91;99335.27;130033;1093;23296;-68
2021/06/16 07:17:10;;;;;;;6.95;4.95;;;;;;;22.20;58.38;99332.05;126116;1093;113876;-68
2021/06/16 07:19:39;;;;;;;5.35;4.48;;;;;;;22.22;58.53;99336.08;129985;1093;22593;-68
2021/06/16 07:22:07;;;;;;;4.98;4.50;;;;;;;22.32;58.86;99331.29;130098;1092;22688;-69
2021/06/16 07:24:35;;;;;;;4.90;4.38;;;;;;;22.43;59.33;99330.52;129919;1093;113825;-67
2021/06/16 07:27:04;;;;;;;7.23;4.08;;;;;;;22.55;58.66;99338.89;130122;1093;22632;-67
2021/06/16 07:29:32;;;;;;;7.53;4.60;;;;;;;22.63;57.89;99348.30;129919;1093;113976;-68
2021/06/16 07:32:01;;;;;;;6.20;4.95;;;;;;;22.64;57.49;99340.78;130100;1092;22679;-68
2021/06/16 07:34:30;;;;;;;5.68;4.38;;;;;;;22.61;57.80;99342.27;129992;1092;23389;-68
2021/06/16 07:36:59;;;;;;;8.10;4.85;;;;;;;22.62;59.04;99348.64;129997;1092;114043;-67
2021/06/16 07:39:27;;;;;;;5.38;4.88;;;;;;;22.67;58.05;99352.00;130064;1093;23046;-68
2021/06/16 07:41:56;;;;;;;6.88;4.98;;;;;;;22.69;57.23;99346.91;129989;1093;113640;-68
2021/06/16 07:44:26;;;;;;;7.68;5.25;;;;;;;22.68;57.21;99350.84;130028;1093;22663;-68
2021/06/16 07:46:54;;;;;;;6.15;4.30;;;;;;;22.64;56.91;99349.93;126688;1092;23463;-67
2021/06/16 07:49:25;;;;;;;4.78;4.23;;;;;;;22.58;57.17;99346.55;129865;1092;113412;-66
2021/06/16 07:51:53;;;;;;;5.85;4.30;;;;;;;22.53;57.39;99343.97;130065;1093;23724;-66
2021/06/16 07:54:21;;;;;;;6.53;4.20;;;;;;;22.49;56.83;99339.46;129957;1093;114196;-66
2021/06/16 07:56:50;;;;;;;4.98;4.18;;;;;;;22.46;57.44;99343.73;130030;1093;22578;-67
2021/06/16 07:59:19;;;;;;;4.63;4.15;;;;;;;22.45;57.46;99347.66;129997;1093;114136;-66
2021/06/16 08:01:48;;;;;;;4.38;3.98;;;;;;;22.46;57.30;99352.05;130079;1093;23290;-66
2021/06/16 08:04:19;;;;;;;9.13;4.33;;;;;;;22.48;57.17;99343.39;130113;1093;22644;-66
2021/06/16 08:06:47;;;;;;;6.83;4.10;;;;;;;22.50;57.42;99346.64;129968;1092;114448;-66
2021/06/16 08:09:15;;;;;;;4.50;4.10;;;;;;;22.52;57.22;99339.56;130078;1093;22544;-67
2021/06/16 08:11:44;;;;;;;5.20;4.15;;;;;;;22.56;57.62;99346.06;129936;1092;114429;-66
2021/06/16 08:14:12;;;;;;;5.53;3.95;;;;;;;22.63;57.39;99344.71;130101;1093;22614;-66
2021/06/16 08:16:43;;;;;;;4.83;4.17;;;;;;;22.68;56.95;99348.06;130051;1093;23796;-65
2021/06/16 08:19:11;;;;;;;5.93;3.55;;;;;;;22.73;55.95;99350.64;130008;1093;113964;-66
2021/06/16 08:21:39;;;;;;;4.15;3.33;;;;;;;22.80;55.44;99350.09;130031;1093;22574;-66
2021/06/16 08:24:08;;;;;;;8.18;3.70;;;;;;;22.83;55.30;99354.97;130009;1093;113776;-66
2021/06/16 08:26:36;;;;;;;6.45;3.50;;;;;;;22.87;55.46;99353.14;130064;1091;22626;-68
2021/06/16 08:29:05;;;;;;;6.53;3.50;;;;;;;22.92;55.82;99355.70;130004;1093;115309;-65
2021/06/16 08:31:34;;;;;;;7.43;3.48;;;;;;;22.97;54.95;99358.24;130042;1093;22589;-67
2021/06/16 08:34:03;;;;;;;3.95;2.73;;;;;;;22.98;53.44;99359.88;130103;1092;23161;-67
2021/06/16 08:36:31;;;;;;;8.28;3.20;;;;;;;22.94;52.06;99364.48;129931;1093;113068;-66
2021/06/16 08:39:19;;;;;;;;;;;;;;;22.89;51.19;99373.06;129875;1093;22591;-70
2021/06/16 08:41:48;;;;;;;3.28;2.73;;;;;;;22.84;51.60;99364.93;129924;1093;100546;-66
2021/06/16 08:44:17;;;;;;;3.73;3.33;;;;;;;22.81;52.50;99371.98;130075;1092;22623;-66
2021/06/16 08:46:46;;;;;;;4.25;3.20;;;;;;;22.80;52.88;99375.09;130094;1093;23429;-66
2021/06/16 08:49:15;;;;;;;9.50;3.28;;;;;;;22.81;53.79;99371.98;129969;1093;114036;-66
2021/06/16 08:51:44;;;;;;;5.30;3.43;;;;;;;22.83;53.43;99371.64;130090;1092;23045;-66
2021/06/16 08:54:12;;;;;;;3.58;2.65;;;;;;;22.84;52.41;99382.41;129926;1093;113667;-66
2021/06/16 08:56:41;;;;;;;5.70;3.15;;;;;;;22.86;51.37;99370.95;130102;1093;22666;-66
2021/06/16 08:59:09;;;;;;;4.55;2.63;;;;;;;22.86;52.47;99365.41;129899;1092;114213;-66
2021/06/16 09:01:39;;;;;;;11.33;2.98;;;;;;;22.89;52.35;99368.31;130101;1093;22643;-66
2021/06/16 09:04:08;;;;;;;4.80;2.28;;;;;;;22.93;50.81;99374.00;130047;1093;22579;-66
2021/06/16 09:06:36;;;;;;;4.15;2.30;;;;;;;22.97;49.74;99372.14;130029;1092;113761;-66
2021/06/16 09:09:07;;;;;;;4.53;1.95;;;;;;;22.98;47.87;99376.55;130059;1093;22635;-67
2021/06/16 09:11:39;;;;;;;4.73;2.30;;;;;;;23.03;48.52;99367.19;130006;1093;114108;-67
2021/06/16 09:15:23;;;;;;;9.88;2.68;;;;;;;23.07;48.55;99368.13;125736;1093;22860;-67
2021/06/16 09:18:08;;;;;;;6.98;1.70;;;;;;;23.16;47.11;99374.39;129942;1090;113455;-67
2021/06/16 09:20:40;;;;;;;5.98;1.90;;;;;;;23.27;47.95;99373.58;129831;1093;23328;-68
2021/06/16 09:23:20;;;;;;;6.95;2.15;;;;;;;23.41;48.34;99370.47;129632;1093;113846;-68
2021/06/16 09:26:08;;;;;;;3.95;2.25;;;;;;;23.54;48.28;99377.68;129839;1092;22534;-68
2021/06/16 09:28:41;;;;;;;4.70;2.10;;;;;;;23.64;48.69;99368.08;129775;1092;22592;-68
2021/06/16 09:31:11;;;;;;;4.78;2.53;;;;;;;23.73;48.41;99374.32;129754;1093;113378;-68
2021/06/16 09:33:40;;;;;;;3.45;2.38;;;;;;;23.80;47.31;99371.78;129761;1093;22542;-68
2021/06/16 09:36:13;;;;;;;5.35;2.00;;;;;;;23.84;47.50;99367.12;129714;1093;114059;-68
2021/06/16 09:38:47;;;;;;;5.80;2.65;;;;;;;23.88;47.40;99367.23;129649;1093;22575;-67
2021/06/16 09:41:24;;;;;;;2.55;2.03;;;;;;;23.94;47.54;99368.63;129676;1093;114231;-68
2021/06/16 09:43:55;;;;;;;3.58;2.03;;;;;;;23.99;48.65;99365.59;129861;1092;22548;-68
2021/06/16 09:46:23;;;;;;;3.40;2.65;;;;;;;24.08;48.79;99376.60;127422;1092;22821;-67
2021/06/16 09:48:52;;;;;;;4.48;2.25;;;;;;;24.16;48.08;99364.51;125212;1093;113890;-66
2021/06/16 09:51:25;;;;;;;7.33;3.03;;;;;;;24.21;48.45;99367.87;129665;1093;23627;-67
2021/06/16 09:54:16;;;;;;;2.43;2.23;;;;;;;24.26;48.12;99364.84;129690;1093;113664;-67
2021/06/16 09:56:54;;;;;;;5.88;3.03;;;;;;;24.31;47.01;99364.61;129784;1092;22542;-67
2021/06/16 09:59:45;;;;;;;6.10;2.38;;;;;;;24.33;46.24;99367.05;129680;1093;113807;-67
2021/06/16 10:02:20;;;;;;;4.88;2.08;;;;;;;24.27;46.29;99368.44;129859;1093;23235;-67
2021/06/16 10:05:00;;;;;;;2.83;2.20;;;;;;;24.21;46.63;99370.66;129795;1093;22590;-68
2021/06/16 10:07:32;;;;;;;4.30;2.10;;;;;;;24.20;46.32;99363.46;129725;1093;113353;-69
2021/06/16 10:10:02;;;;;;;7.05;2.10;;;;;;;24.19;46.13;99361.02;129816;1093;22573;-68
2021/06/16 10:12:38;;;;;;;3.00;1.90;;;;;;;24.18;45.82;99368.56;129696;1092;113604;-68
2021/06/16 10:15:12;;;;;;;4.43;2.03;;;;;;;24.12;46.81;99346.88;129819;1092;23103;-67
2021/06/16 10:17:43;;;;;;;3.20;2.08;;;;;;;24.25;46.46;99359.63;129695;1092;113786;-68
2021/06/16 10:20:13;;;;;;;3.20;2.03;;;;;;;24.28;46.44;99348.60;129788;1092;22559;-68
2021/06/16 10:22:42;;;;;;;6.88;2.23;;;;;;;24.33;46.75;99344.77;129734;1093;22663;-69
2021/06/16 10:25:10;;;;;;;5.50;2.60;;;;;;;24.39;46.35;99345.30;129795;1093;113575;-68
2021/06/16 10:27:56;;;;;;;3.48;2.20;;;;;;;24.43;45.77;99335.09;129828;1093;22563;-68
2021/06/16 10:30:26;;;;;;;6.55;2.30;;;;;;;24.47;46.03;99344.36;129686;1093;114076;-68
2021/06/16 10:32:55;;;;;;;4.28;2.08;;;;;;;24.50;46.08;99332.52;129770;1093;22563;-68
2021/06/16 10:35:34;;;;;;;7.68;2.13;;;;;;;24.56;46.43;99353.36;129589;1093;114158;-69
2021/06/16 10:38:24;;;;;;;7.25;2.25;;;;;;;24.63;46.08;99348.01;129824;1092;22527;-68
2021/06/16 10:40:54;;;;;;;2.50;2.03;;;;;;;24.66;46.64;99327.80;129679;1092;114690;-68
2021/06/16 10:43:42;;;;;;;24.85;2.90;;;;;;;24.67;45.43;99338.56;129882;1093;23463;-68
2021/06/16 10:46:16;;;;;;;8.48;2.18;;;;;;;24.66;45.17;99331.40;127899;1092;25395;-67
2021/06/16 10:48:59;;;;;;;5.45;2.13;;;;;;;24.65;45.41;99335.34;129756;1092;113402;-67
2021/06/16 10:51:32;;;;;;;5.30;1.83;;;;;;;24.66;45.69;99338.95;129843;1093;22566;-67
2021/06/16 10:54:21;;;;;;;6.80;2.05;;;;;;;24.69;46.12;99340.99;129810;1093;113842;-67
2021/06/16 10:56:58;;;;;;;8.60;2.45;;;;;;;24.73;45.86;99350.27;129783;1093;22563;-68
2021/06/16 10:59:42;;;;;;;6.60;2.00;;;;;;;24.74;44.83;99357.47;129749;1093;113840;-67
2021/06/16 11:02:32;;;;;;;2.40;1.98;;;;;;;24.76;44.96;99348.75;129742;1093;22619;-68
2021/06/16 11:05:20;;;;;;;2.35;2.15;;;;;;;24.77;44.87;99353.97;129684;1093;113932;-68
2021/06/16 11:07:49;;;;;;;3.28;2.30;;;;;;;24.75;44.96;99344.34;129708;1093;22571;-67
2021/06/16 11:10:19;;;;;;;2.58;1.80;;;;;;;24.76;44.89;99351.54;129811;1093;23339;-68
2021/06/16 11:12:52;;;;;;;5.60;2.20;;;;;;;24.74;44.49;99343.53;129688;1092;113865;-67
2021/06/16 11:15:24;;;;;;;19.35;2.65;;;;;;;24.73;44.65;99364.20;129794;1093;22550;-68
2021/06/16 11:18:00;;;;;;;2.48;1.60;;;;;;;24.72;43.30;99348.65;129712;1092;114895;-67
2021/06/16 11:20:37;;;;;;;4.88;1.63;;;;;;;24.68;43.80;99344.94;129839;1092;22651;-67
2021/06/16 11:23:07;;;;;;;2.03;1.78;;;;;;;24.68;43.47;99354.11;129646;1093;113828;-67
2021/06/16 11:25:40;;;;;;;6.78;1.90;;;;;;;24.70;43.82;99353.76;128923;1093;22907;-67
2021/06/16 11:28:21;;;;;;;6.38;1.83;;;;;;;24.74;43.65;99349.10;129787;1093;22696;-67
2021/06/16 11:30:55;;;;;;;4.35;1.58;;;;;;;24.79;43.04;99334.11;129705;1092;112841;-67
2021/06/16 11:33:30;;;;;;;2.30;1.73;;;;;;;24.83;43.69;99348.93;129801;1093;22624;-68
2021/06/16 11:36:06;;;;;;;7.20;1.85;;;;;;;24.87;43.13;99339.50;129773;1093;113866;-68
2021/06/16 11:38:40;;;;;;;6.58;2.00;;;;;;;24.93;44.38;99337.28;129779;1092;22567;-67